createdAt,value
2022-12-20T00:07:23.414Z,67.20
2022-12-20T00:17:24.760Z,66.82
2022-12-20T00:27:26.058Z,71.47
2022-12-20T00:37:27.332Z,70.05
2022-12-20T00:47:28.594Z,63.75
2022-12-20T00:57:29.925Z,65.78
2022-12-20T01:07:31.215Z,68.75
2022-12-20T01:17:32.500Z,55.67
2022-12-20T01:27:33.762Z,54.25
2022-12-20T01:37:35.482Z,57.95
2022-12-20T01:47:36.844Z,55.97
2022-12-20T01:57:38.163Z,56.40
2022-12-20T02:07:39.433Z,54.92
2022-12-20T02:17:40.680Z,61.97
2022-12-20T02:27:42.329Z,60.20
2022-12-20T02:37:44.440Z,66.40
2022-12-20T02:47:45.658Z,60.17
2022-12-20T02:57:47.056Z,59.60
2022-12-20T03:07:48.388Z,64.03
2022-12-20T03:17:49.650Z,69.38
2022-12-20T03:27:50.893Z,63.45
2022-12-20T03:37:52.147Z,56.92
2022-12-20T03:47:53.359Z,65.50
2022-12-20T03:57:54.613Z,71.30
2022-12-20T04:07:55.856Z,69.63
2022-12-20T04:17:57.095Z,67.28
2022-12-20T04:27:58.324Z,57.03
2022-12-20T04:37:59.567Z,65.18
2022-12-20T04:48:21.038Z,55.25
2022-12-20T04:58:22.092Z,48.65
2022-12-20T05:08:23.368Z,56.05
2022-12-20T05:18:24.595Z,52.63
2022-12-20T05:28:25.879Z,51.15
2022-12-20T05:38:27.118Z,49.10
2022-12-20T05:48:29.516Z,53.90
2022-12-20T05:58:30.845Z,53.17
2022-12-20T06:08:32.081Z,55.28
2022-12-20T06:18:33.465Z,56.10
2022-12-20T06:28:34.768Z,48.17
2022-12-20T06:38:36.022Z,54.00
2022-12-20T06:48:37.322Z,47.95
2022-12-20T06:58:38.583Z,50.20
2022-12-20T07:08:39.853Z,53.08
2022-12-20T07:18:41.082Z,54.78
2022-12-20T07:28:42.345Z,46.60
2022-12-20T07:38:43.586Z,40.05
2022-12-20T07:48:44.905Z,46.25
2022-12-20T07:58:47.343Z,44.92
2022-12-20T08:08:48.649Z,50.15
2022-12-20T08:18:49.909Z,47.55
2022-12-20T08:28:51.141Z,48.17
2022-12-20T08:38:52.421Z,40.35
2022-12-20T08:48:53.747Z,47.92
2022-12-20T08:58:54.998Z,38.72
2022-12-20T09:08:56.297Z,38.53
2022-12-20T09:19:04.242Z,34.08
2022-12-20T09:29:06.261Z,37.35
2022-12-20T09:39:07.635Z,38.88
2022-12-20T09:49:08.956Z,33.88
2022-12-20T09:59:10.165Z,33.97
2022-12-20T10:09:11.516Z,39.97
2022-12-20T10:19:12.758Z,32.45
2022-12-20T10:29:14.010Z,34.05
2022-12-20T10:39:15.228Z,43.65
2022-12-20T10:49:16.569Z,31.38
2022-12-20T10:59:17.799Z,34.58
2022-12-20T11:09:19.038Z,30.58
2022-12-20T11:19:20.298Z,34.70
2022-12-20T11:29:21.553Z,30.15
2022-12-20T11:39:22.803Z,31.90
2022-12-20T11:49:24.048Z,32.60
2022-12-20T11:59:25.346Z,40.38
2022-12-20T12:09:26.593Z,31.80
2022-12-20T12:19:27.935Z,33.58
2022-12-20T12:29:29.208Z,31.63
2022-12-20T12:39:30.680Z,38.05
2022-12-20T12:49:32.137Z,33.22
2022-12-20T12:59:33.418Z,40.60
2022-12-20T13:09:34.744Z,43.33
2022-12-20T13:19:36.091Z,34.83
2022-12-20T13:29:37.390Z,42.53
2022-12-20T13:39:38.652Z,46.28
2022-12-20T13:49:40.008Z,47.63
2022-12-20T13:59:41.265Z,40.88
2022-12-20T14:09:42.509Z,43.05
2022-12-20T14:19:43.839Z,49.38
2022-12-20T14:29:45.153Z,43.13
2022-12-20T14:39:46.431Z,43.13
2022-12-20T14:49:47.885Z,37.17
2022-12-20T14:59:49.191Z,45.95
2022-12-20T15:09:50.468Z,40.70
2022-12-20T15:19:51.742Z,55.38
2022-12-20T15:29:53.017Z,43.65
2022-12-20T15:39:55.381Z,44.60
2022-12-20T15:49:56.669Z,38.88
2022-12-20T16:00:00.366Z,36.88
2022-12-20T16:10:03.145Z,39.97
2022-12-20T16:20:04.496Z,35.35
2022-12-20T16:30:06.668Z,39.00
2022-12-20T16:40:07.950Z,33.70
2022-12-20T16:50:09.436Z,37.17
2022-12-20T17:00:10.750Z,38.35
2022-12-20T17:10:11.994Z,40.47
2022-12-20T17:20:13.482Z,36.25
2022-12-20T17:30:14.748Z,37.42
2022-12-20T17:40:16.091Z,48.33
2022-12-20T17:50:18.086Z,50.97
2022-12-20T18:00:19.396Z,53.03
2022-12-20T18:10:20.776Z,50.30
2022-12-20T18:20:22.258Z,52.47
2022-12-20T18:30:23.516Z,54.08
2022-12-20T18:40:26.177Z,56.63
2022-12-20T18:50:27.921Z,49.83
2022-12-20T19:00:29.215Z,48.13
2022-12-20T19:10:30.486Z,46.50
2022-12-20T19:20:31.752Z,70.13
2022-12-20T19:30:33.029Z,63.53
2022-12-20T19:51:18.333Z,82.85
2022-12-20T20:01:19.966Z,79.53
2022-12-20T20:11:21.344Z,50.35
2022-12-20T20:21:22.742Z,44.78
2022-12-20T20:31:24.368Z,44.55
2022-12-20T20:41:29.317Z,36.15
2022-12-20T20:51:30.593Z,39.40
2022-12-20T21:01:32.018Z,38.72
2022-12-20T21:11:33.879Z,42.33
2022-12-20T21:21:35.272Z,49.35
2022-12-20T21:31:36.638Z,42.05
2022-12-20T21:41:37.971Z,38.90
2022-12-20T21:51:39.220Z,39.95
2022-12-20T22:01:40.620Z,38.58
2022-12-20T22:11:42.157Z,43.05
2022-12-20T22:21:43.949Z,36.95
2022-12-20T22:31:45.376Z,39.22
2022-12-20T22:41:46.799Z,41.08
2022-12-20T22:51:59.339Z,43.92
2022-12-20T23:02:07.696Z,48.45
2022-12-20T23:12:28.041Z,42.78
2022-12-20T23:22:38.366Z,42.42
2022-12-20T23:32:39.863Z,36.75
2022-12-20T23:42:41.136Z,43.65
2022-12-20T23:52:42.388Z,38.33
